Time;durP1;ratioP1;P1;durP2;ratioP2;P2;SDS_P1;SDS_P2;PMS_P1;PMS_P2;Temp;Humidity;BMP_temperature;BMP_pressure;BME280_temperature;BME280_humidity;BME280_pressure;Samples;Min_cycle;Max_cycle;Signal;HPM_P1;HPM_P2
2021/07/13 00:01:49;;;;;;;3.07;1.63;;;;;;;21.18;66.89;95948.06;5095029;28;20311;-66
2021/07/13 00:04:15;;;;;;;3.23;1.40;;;;;;;21.07;67.28;95944.50;5094324;28;20185;-65
2021/07/13 00:06:40;;;;;;;2.80;1.37;;;;;;;21.42;66.59;95942.44;5098525;28;20178;-65
2021/07/13 00:09:06;;;;;;;2.10;1.67;;;;;;;21.16;66.53;95948.31;5093463;28;20673;-66
2021/07/13 00:11:32;;;;;;;2.03;1.83;;;;;;;21.30;66.64;95940.72;5093614;28;20194;-66
2021/07/13 00:13:58;;;;;;;3.03;1.40;;;;;;;20.80;68.11;95928.47;5092096;28;20258;-65
2021/07/13 00:16:23;;;;;;;5.63;1.50;;;;;;;20.65;69.00;95929.91;5094371;28;20181;-66
2021/07/13 00:18:49;;;;;;;3.00;1.67;;;;;;;20.83;68.12;95918.16;5094387;28;20243;-65
2021/07/13 00:21:14;;;;;;;4.47;1.77;;;;;;;20.50;69.55;95932.38;5094330;28;20170;-66
2021/07/13 00:23:40;;;;;;;3.63;2.17;;;;;;;20.46;70.03;95933.91;5093437;28;20511;-66
2021/07/13 00:26:06;;;;;;;2.20;1.50;;;;;;;20.44;70.86;95939.47;5093229;28;20173;-65
2021/07/13 00:28:33;;;;;;;3.20;1.77;;;;;;;20.56;70.14;95948.16;5094569;28;20180;-65
2021/07/13 00:30:59;;;;;;;3.20;1.90;;;;;;;20.72;69.50;95949.13;5094253;28;20190;-65
2021/07/13 00:33:24;;;;;;;7.03;2.10;;;;;;;21.02;69.22;95955.91;5093394;28;20438;-65
2021/07/13 00:35:50;;;;;;;2.30;2.10;;;;;;;21.31;67.90;95966.31;5094770;28;20408;-65
2021/07/13 00:38:16;;;;;;;3.67;1.70;;;;;;;21.06;70.31;95971.38;5093848;28;20197;-65
2021/07/13 00:40:41;;;;;;;2.50;2.30;;;;;;;20.83;71.42;95965.25;5093942;28;20181;-65
2021/07/13 00:43:07;;;;;;;5.00;2.87;;;;;;;20.59;73.82;95951.38;5098091;28;20259;-67
2021/07/13 00:45:33;;;;;;;7.37;3.20;;;;;;;20.18;76.87;95936.47;5102807;28;20241;-67
2021/07/13 00:47:58;;;;;;;5.40;3.30;;;;;;;19.67;80.13;95906.44;5102378;28;20177;-66
2021/07/13 00:50:26;;;;;;;7.10;3.33;;;;;;;19.71;80.17;95895.06;5102963;28;20273;-66
2021/07/13 00:52:52;;;;;;;7.53;3.00;;;;;;;20.03;79.61;95918.44;5104383;28;20631;-67
2021/07/13 00:55:18;;;;;;;5.43;2.90;;;;;;;19.99;79.23;95930.63;5103812;28;20995;-67
2021/07/13 00:57:45;;;;;;;6.20;3.13;;;;;;;19.72;80.82;95933.09;5086469;28;20439;-67
2021/07/13 01:00:13;;;;;;;4.83;2.77;;;;;;;19.64;80.81;95897.91;5100838;28;20419;-67
2021/07/13 01:02:39;;;;;;;3.93;2.63;;;;;;;19.59;81.40;95862.47;5102734;28;20514;-67
2021/07/13 01:05:18;;;;;;;5.47;2.50;;;;;;;19.52;82.66;95856.53;5101757;28;20415;-66
2021/07/13 01:07:50;;;;;;;4.30;2.47;;;;;;;19.67;81.96;95867.38;5084979;28;20531;-66
2021/07/13 01:10:15;;;;;;;4.37;2.23;;;;;;;19.37;82.34;95888.94;5103093;28;20435;-66
2021/07/13 01:12:48;;;;;;;3.40;2.83;;;;;;;19.53;82.63;95895.34;5103214;28;20974;-66
2021/07/13 01:15:20;;;;;;;2.83;2.53;;;;;;;19.58;81.93;95901.53;5102386;28;20188;-66
2021/07/13 01:17:51;;;;;;;2.87;2.13;;;;;;;19.21;81.54;95904.63;5102833;28;20515;-67
2021/07/13 01:20:32;;;;;;;4.90;2.10;;;;;;;19.26;81.74;95896.75;5104264;28;20419;-65
2021/07/13 01:23:41;;;;;;;2.50;1.50;;;;;;;19.44;80.40;95909.00;5102101;28;20435;-67
2021/07/13 01:26:31;;;;;;;3.90;1.90;;;;;;;19.41;80.60;95917.44;5093630;28;20435;-67
2021/07/13 01:29:01;;;;;;;4.50;1.60;;;;;;;19.53;79.45;95909.41;5100926;28;20784;-67
2021/07/13 01:31:27;;;;;;;2.90;1.70;;;;;;;19.48;79.56;95910.13;5101739;28;21025;-65
2021/07/13 01:34:03;;;;;;;1.57;1.20;;;;;;;19.37;79.90;95911.00;5102396;28;20473;-67
2021/07/13 01:36:36;;;;;;;2.60;1.47;;;;;;;19.38;79.82;95933.88;5101802;28;20408;-66
2021/07/13 01:39:04;;;;;;;1.87;1.30;;;;;;;19.39;79.74;95935.50;5100979;28;20435;-66
2021/07/13 01:41:30;;;;;;;2.13;1.50;;;;;;;19.41;78.89;95927.28;5102877;28;20416;-66
2021/07/13 01:43:57;;;;;;;3.10;1.57;;;;;;;19.67;78.24;95928.47;5097969;28;20444;-66
2021/07/13 01:46:23;;;;;;;1.97;1.80;;;;;;;19.74;77.79;95928.31;5099610;28;20925;-67
2021/07/13 01:48:55;;;;;;;5.73;2.00;;;;;;;19.75;78.36;95941.38;5099150;28;20427;-67
2021/07/13 01:51:21;;;;;;;4.83;2.10;;;;;;;19.56;79.18;95953.28;5097670;28;20554;-67
2021/07/13 01:53:48;;;;;;;3.77;2.20;;;;;;;19.36;80.62;95959.03;5096614;28;20483;-67
2021/07/13 01:56:14;;;;;;;2.27;1.80;;;;;;;19.62;79.19;95968.28;5100288;28;20424;-67
2021/07/13 01:58:40;;;;;;;3.13;2.13;;;;;;;19.67;79.03;95971.00;5084265;28;20459;-67
2021/07/13 02:01:10;;;;;;;4.50;2.63;;;;;;;19.74;78.49;95969.00;5098101;28;20273;-67
2021/07/13 02:03:37;;;;;;;11.57;2.60;;;;;;;19.84;78.28;95971.03;5081789;28;20597;-67
2021/07/13 02:06:04;;;;;;;2.87;2.00;;;;;;;19.77;78.39;95968.53;5099256;28;20416;-67
2021/07/13 02:08:29;;;;;;;5.23;2.47;;;;;;;19.81;78.38;95979.47;5099823;28;20495;-67
2021/07/13 02:10:55;;;;;;;3.83;3.00;;;;;;;19.71;79.08;95974.81;5083398;28;20486;-66
2021/07/13 02:13:21;;;;;;;5.03;2.87;;;;;;;19.78;79.20;95975.44;5095633;28;20206;-67
2021/07/13 02:15:47;;;;;;;3.37;2.70;;;;;;;20.08;77.91;95979.66;5102565;28;20177;-67
2021/07/13 02:18:13;;;;;;;4.70;2.90;;;;;;;20.29;76.88;95985.28;5101075;28;20207;-67
2021/07/13 02:20:39;;;;;;;8.67;2.87;;;;;;;20.17;78.07;95988.03;5100974;28;20178;-67
2021/07/13 02:23:05;;;;;;;2.83;2.53;;;;;;;20.37;76.78;95992.84;5102572;28;20439;-67
2021/07/13 02:25:31;;;;;;;9.30;3.10;;;;;;;20.52;75.91;96002.09;5103723;28;20178;-67
2021/07/13 02:28:19;;;;;;;3.77;2.87;;;;;;;20.71;75.49;96003.41;5101299;28;20837;-67
2021/07/13 02:30:48;;;;;;;4.77;3.00;;;;;;;20.75;75.22;96010.94;5100234;28;20624;-67
2021/07/13 02:33:19;;;;;;;5.83;3.00;;;;;;;20.86;74.83;96008.16;5099970;28;20446;-66
2021/07/13 02:35:51;;;;;;;8.70;2.80;;;;;;;20.92;74.38;96009.03;5080611;28;20428;-67
2021/07/13 02:38:19;;;;;;;3.77;2.70;;;;;;;21.00;73.94;96005.13;5082569;28;20443;-67
2021/07/13 02:40:46;;;;;;;7.50;2.93;;;;;;;20.97;73.77;95995.00;5100419;28;20411;-67
2021/07/13 02:43:12;;;;;;;3.70;2.20;;;;;;;20.81;73.54;95986.81;5098207;28;20444;-67
2021/07/13 02:45:38;;;;;;;3.73;2.50;;;;;;;20.60;75.15;95991.03;5097783;28;20415;-67
2021/07/13 02:48:04;;;;;;;29.03;8.37;;;;;;;20.38;76.08;95975.84;5099595;28;20205;-68
2021/07/13 02:50:30;;;;;;;33.57;9.10;;;;;;;20.01;77.68;95947.13;5098427;28;20219;-67
2021/07/13 02:52:57;;;;;;;124.40;25.60;;;;;;;19.70;79.75;95938.63;5101773;28;20483;-67
2021/07/13 02:55:23;;;;;;;49.10;13.40;;;;;;;19.57;79.40;95930.97;5102242;28;20476;-67
2021/07/13 02:57:51;;;;;;;47.63;11.67;;;;;;;19.83;78.48;95926.06;5101977;28;20418;-67
2021/07/13 03:00:19;;;;;;;31.97;7.77;;;;;;;19.94;78.43;95930.53;5099078;28;20482;-67
2021/07/13 03:02:46;;;;;;;31.80;8.37;;;;;;;19.80;78.57;95927.38;5101317;28;20443;-67
2021/07/13 03:05:23;;;;;;;12.67;4.30;;;;;;;19.92;78.38;95928.13;5099758;28;20420;-67
2021/07/13 03:07:50;;;;;;;7.27;2.87;;;;;;;19.51;80.19;95910.72;5101926;28;20412;-67
2021/07/13 03:10:26;;;;;;;5.90;2.10;;;;;;;19.34;80.56;95899.00;5100051;28;20812;-67
2021/07/13 03:12:53;;;;;;;3.93;2.00;;;;;;;19.50;80.41;95893.94;5100412;28;20459;-67
2021/07/13 03:15:20;;;;;;;3.97;2.40;;;;;;;19.58;80.64;95879.47;5098586;28;20453;-67
2021/07/13 03:17:46;;;;;;;4.63;2.40;;;;;;;19.57;80.68;95864.56;5090953;28;20419;-67
2021/07/13 03:20:12;;;;;;;3.43;2.17;;;;;;;19.74;78.85;95860.03;5099011;28;20424;-67
2021/07/13 03:22:43;;;;;;;4.20;3.00;;;;;;;19.76;79.15;95849.97;5104043;28;20197;-66
2021/07/13 03:25:12;;;;;;;41.37;12.90;;;;;;;19.90;78.30;95850.47;5098169;28;20423;-67
2021/07/13 03:27:38;;;;;;;32.93;9.60;;;;;;;20.07;77.99;95857.59;5082180;28;20419;-66
2021/07/13 03:30:05;;;;;;;13.30;4.57;;;;;;;20.32;76.52;95857.13;5102577;28;20423;-68
2021/07/13 03:32:33;;;;;;;12.90;5.30;;;;;;;20.21;76.39;95834.09;5096037;28;20201;-67
2021/07/13 03:34:59;;;;;;;3.10;2.50;;;;;;;20.36;76.03;95833.47;5096527;28;20484;-67
2021/07/13 03:37:25;;;;;;;3.07;2.03;;;;;;;20.16;76.71;95831.41;5099269;28;20522;-67
2021/07/13 03:39:51;;;;;;;3.40;2.20;;;;;;;20.49;75.27;95824.31;5098970;28;20622;-67
2021/07/13 03:42:18;;;;;;;7.20;2.70;;;;;;;20.42;75.69;95825.31;5098737;28;20198;-67
2021/07/13 03:44:44;;;;;;;2.80;2.10;;;;;;;20.61;74.97;95821.50;5100376;28;20176;-68
2021/07/13 03:47:14;;;;;;;3.40;2.07;;;;;;;20.60;75.28;95826.03;5099261;28;20427;-67
2021/07/13 03:49:40;;;;;;;6.00;2.10;;;;;;;20.74;74.76;95830.97;5098897;28;20189;-66
2021/07/13 03:52:06;;;;;;;3.63;2.40;;;;;;;20.77;75.13;95827.84;5097548;28;20456;-66
2021/07/13 03:54:32;;;;;;;2.70;2.40;;;;;;;20.85;74.87;95816.75;5096932;28;20420;-65
2021/07/13 03:56:57;;;;;;;4.50;3.00;;;;;;;20.31;77.16;95810.28;5097873;28;20430;-66
2021/07/13 03:59:23;;;;;;;2.90;2.70;;;;;;;20.25;77.55;95803.31;5100884;28;20177;-66
2021/07/13 04:01:49;;;;;;;4.30;3.03;;;;;;;20.54;76.26;95805.75;5101998;28;20285;-66
2021/07/13 04:04:14;;;;;;;4.60;2.53;;;;;;;20.09;78.49;95805.78;5098793;28;20253;-67
2021/07/13 04:06:40;;;;;;;2.97;2.67;;;;;;;19.77;79.47;95802.94;5104488;28;20487;-66
2021/07/13 04:09:07;;;;;;;3.73;3.20;;;;;;;20.21;78.49;95807.50;5103405;28;20189;-67
2021/07/13 04:11:32;;;;;;;5.47;3.40;;;;;;;20.39;77.34;95809.88;5103006;28;20197;-66
2021/07/13 04:13:58;;;;;;;3.67;3.37;;;;;;;20.56;76.72;95798.31;5103168;28;20424;-66
2021/07/13 04:16:23;;;;;;;3.67;3.37;;;;;;;20.61;76.77;95800.22;5103362;28;20208;-66
2021/07/13 04:18:49;;;;;;;5.00;3.43;;;;;;;20.43;77.11;95802.19;5103107;28;20182;-67
2021/07/13 04:21:15;;;;;;;3.60;3.30;;;;;;;20.27;78.38;95809.19;5104059;28;20565;-68
2021/07/13 04:23:40;;;;;;;5.40;4.90;;;;;;;20.14;78.97;95805.03;5101872;28;20198;-66
2021/07/13 04:26:06;;;;;;;4.67;4.00;;;;;;;19.92;79.75;95795.19;5102107;28;20688;-67
2021/07/13 04:28:32;;;;;;;8.00;4.70;;;;;;;19.99;80.24;95792.38;5101722;28;20197;-66
2021/07/13 04:30:59;;;;;;;7.20;4.90;;;;;;;20.33;78.92;95789.56;5102601;28;20415;-67
2021/07/13 04:33:25;;;;;;;4.27;3.97;;;;;;;20.62;77.31;95784.03;5097580;28;20209;-67
2021/07/13 04:35:51;;;;;;;4.73;4.33;;;;;;;20.40;78.13;95787.53;5098232;28;20419;-68
2021/07/13 04:38:16;;;;;;;5.53;4.20;;;;;;;20.54;77.75;95784.47;5100346;28;20516;-66
2021/07/13 04:40:42;;;;;;;5.87;4.40;;;;;;;20.74;76.55;95813.13;5103035;28;20181;-67
2021/07/13 04:43:08;;;;;;;8.27;3.97;;;;;;;20.09;79.05;95827.06;5102860;28;20247;-65
2021/07/13 04:45:33;;;;;;;4.70;3.73;;;;;;;20.67;76.89;95828.50;5101036;28;20178;-65
2021/07/13 04:47:59;;;;;;;4.37;3.73;;;;;;;20.78;75.90;95821.47;5102046;28;20236;-65
2021/07/13 04:50:24;;;;;;;4.13;3.60;;;;;;;21.00;75.47;95813.41;5102001;28;20220;-67
2021/07/13 04:52:50;;;;;;;6.07;4.03;;;;;;;21.06;75.04;95823.06;5101362;28;20219;-67
2021/07/13 04:55:17;;;;;;;4.30;3.90;;;;;;;21.08;74.76;95822.78;5100577;28;20178;-68
2021/07/13 04:57:46;;;;;;;4.60;4.20;;;;;;;20.97;74.95;95820.03;5078789;28;20182;-67
2021/07/13 05:00:13;;;;;;;5.50;4.47;;;;;;;21.10;74.79;95818.03;5098029;28;20444;-66
2021/07/13 05:02:38;;;;;;;3.90;3.60;;;;;;;21.26;74.38;95827.75;5102112;28;20424;-67
2021/07/13 05:05:05;;;;;;;3.83;3.53;;;;;;;21.34;73.57;95831.81;5075668;28;20439;-67
2021/07/13 05:07:31;;;;;;;6.57;3.53;;;;;;;21.32;73.31;95842.72;5102697;28;20192;-67
2021/07/13 05:09:57;;;;;;;5.47;3.23;;;;;;;21.14;73.04;95840.44;5101891;28;20431;-68
2021/07/13 05:12:22;;;;;;;3.60;3.30;;;;;;;20.72;74.41;95826.69;5102151;28;20209;-67
2021/07/13 05:14:48;;;;;;;4.90;3.57;;;;;;;20.73;74.62;95814.19;5101306;28;20180;-67
2021/07/13 05:17:14;;;;;;;8.23;4.23;;;;;;;21.12;73.79;95834.56;5101751;28;20205;-67
2021/07/13 05:19:42;;;;;;;4.37;3.33;;;;;;;21.15;73.23;95832.19;5101895;28;20196;-67
2021/07/13 05:22:09;;;;;;;3.07;2.60;;;;;;;21.02;73.42;95819.28;5109412;28;20219;-67
2021/07/13 05:24:35;;;;;;;5.43;2.97;;;;;;;21.21;72.53;95819.72;5102852;28;20412;-67
2021/07/13 05:27:00;;;;;;;2.80;2.60;;;;;;;21.29;72.03;95815.78;5111056;28;20434;-67
2021/07/13 05:29:26;;;;;;;3.43;2.70;;;;;;;21.46;71.24;95805.78;5098910;28;20648;-67
2021/07/13 05:31:52;;;;;;;5.27;3.33;;;;;;;21.00;73.24;95808.91;5079509;28;20628;-66
2021/07/13 05:34:17;;;;;;;5.90;2.73;;;;;;;21.46;71.92;95799.66;5103102;28;20207;-68
2021/07/13 05:36:43;;;;;;;5.13;2.77;;;;;;;21.41;71.95;95799.63;5101478;28;20213;-67
2021/07/13 05:39:09;;;;;;;3.83;3.13;;;;;;;21.68;70.28;95807.56;5102858;28;20197;-67
2021/07/13 05:41:36;;;;;;;3.40;2.30;;;;;;;21.86;70.32;95811.66;5101500;28;20174;-66
2021/07/13 05:44:01;;;;;;;2.67;2.17;;;;;;;21.81;70.24;95803.63;5098650;28;20427;-68
2021/07/13 05:46:27;;;;;;;7.00;2.73;;;;;;;21.99;69.71;95798.91;5100916;28;20556;-66
2021/07/13 05:48:52;;;;;;;3.57;2.60;;;;;;;22.16;69.57;95802.22;5084330;28;20206;-66
2021/07/13 05:51:18;;;;;;;2.80;2.27;;;;;;;21.96;68.54;95813.59;5101494;28;20206;-67
2021/07/13 05:53:44;;;;;;;2.60;2.40;;;;;;;21.93;68.94;95814.88;5099568;28;20224;-66
2021/07/13 05:56:10;;;;;;;3.07;2.33;;;;;;;22.06;68.15;95823.47;5100749;28;20196;-65
2021/07/13 05:58:37;;;;;;;3.27;2.97;;;;;;;22.12;68.60;95830.44;5095602;28;20231;-67
2021/07/13 06:01:04;;;;;;;3.67;2.53;;;;;;;21.61;70.66;95834.44;5082303;28;20544;-66
2021/07/13 06:03:30;;;;;;;2.00;1.90;;;;;;;22.02;68.80;95833.88;5099917;28;20446;-67
2021/07/13 06:05:55;;;;;;;2.80;2.40;;;;;;;22.12;68.54;95843.78;5100462;28;20510;-67
2021/07/13 06:08:21;;;;;;;1.87;1.70;;;;;;;22.18;68.13;95834.72;5100380;28;20185;-69
2021/07/13 06:10:46;;;;;;;4.30;2.00;;;;;;;22.18;67.75;95829.41;5095724;28;20211;-66
2021/07/13 06:13:12;;;;;;;2.83;2.10;;;;;;;22.19;67.86;95838.22;5094717;28;20264;-66
2021/07/13 06:15:38;;;;;;;3.20;2.17;;;;;;;21.96;68.39;95847.44;5100219;28;20231;-66
2021/07/13 06:18:04;;;;;;;2.63;1.90;;;;;;;21.51;70.64;95837.00;5102283;28;20209;-65
2021/07/13 06:20:29;;;;;;;3.60;2.00;;;;;;;21.72;69.15;95837.16;5101532;28;20419;-66
2021/07/13 06:22:55;;;;;;;2.20;1.90;;;;;;;21.81;69.20;95838.28;5101315;28;20193;-67
2021/07/13 06:25:21;;;;;;;2.20;1.80;;;;;;;21.79;69.15;95835.88;5101488;28;20224;-67
2021/07/13 06:27:46;;;;;;;2.33;1.77;;;;;;;21.98;68.86;95816.78;5099675;28;20181;-65
2021/07/13 06:30:13;;;;;;;3.27;2.10;;;;;;;22.01;68.88;95818.13;5096694;28;20194;-66
2021/07/13 06:32:39;;;;;;;2.03;1.70;;;;;;;21.78;69.25;95828.94;5097115;28;20213;-67
2021/07/13 06:35:06;;;;;;;3.63;2.63;;;;;;;21.53;69.97;95818.06;5097480;28;20804;-70
2021/07/13 06:37:31;;;;;;;10.23;2.27;;;;;;;21.88;69.73;95812.19;5096077;28;20431;-68
2021/07/13 06:39:57;;;;;;;1.93;1.60;;;;;;;21.72;69.87;95823.81;5095483;28;20447;-68
2021/07/13 06:42:22;;;;;;;2.97;1.90;;;;;;;21.79;70.17;95841.22;5102007;28;20232;-67
2021/07/13 06:44:48;;;;;;;2.43;1.80;;;;;;;21.96;69.68;95844.75;5099961;28;20210;-67
2021/07/13 06:47:14;;;;;;;3.80;1.80;;;;;;;22.05;69.02;95849.34;5097176;28;20381;-66
2021/07/13 06:49:40;;;;;;;4.27;2.40;;;;;;;22.29;68.20;95864.94;5097604;28;20177;-66
2021/07/13 06:52:06;;;;;;;3.40;2.50;;;;;;;21.61;71.16;95858.41;5097215;28;20213;-66
2021/07/13 06:54:32;;;;;;;3.67;1.57;;;;;;;22.30;68.82;95853.22;5100103;28;20420;-67
2021/07/13 06:56:58;;;;;;;2.67;2.17;;;;;;;22.45;68.07;95851.69;5098752;28;20512;-67
2021/07/13 06:59:24;;;;;;;2.93;2.10;;;;;;;22.56;67.43;95850.66;5099365;28;20428;-66
2021/07/13 07:01:49;;;;;;;5.77;2.27;;;;;;;22.44;67.36;95858.88;5100741;28;20208;-67
2021/07/13 07:04:15;;;;;;;8.40;1.70;;;;;;;22.28;68.23;95863.34;5098137;28;20608;-66
2021/07/13 07:06:41;;;;;;;3.60;1.90;;;;;;;21.91;69.09;95857.03;5080892;28;20174;-67
2021/07/13 07:09:06;;;;;;;2.10;1.83;;;;;;;21.76;69.33;95859.59;5096816;28;20241;-67
2021/07/13 07:11:32;;;;;;;2.30;2.10;;;;;;;21.85;69.51;95862.59;5099872;28;20290;-67
2021/07/13 07:13:58;;;;;;;2.63;2.10;;;;;;;21.77;70.54;95864.66;5089259;28;20280;-68
2021/07/13 07:16:23;;;;;;;2.30;2.10;;;;;;;21.66;70.76;95873.63;5099463;28;20274;-67
2021/07/13 07:18:49;;;;;;;4.10;3.30;;;;;;;21.61;70.55;95871.75;5099881;28;20567;-68
2021/07/13 07:21:14;;;;;;;6.20;2.83;;;;;;;21.40;72.37;95875.28;5099129;28;20177;-69
2021/07/13 07:23:40;;;;;;;10.17;4.40;;;;;;;21.39;73.06;95863.03;5098752;28;20201;-68
2021/07/13 07:26:06;;;;;;;4.27;3.87;;;;;;;21.08;75.17;95857.41;5099621;28;20189;-68
2021/07/13 07:28:31;;;;;;;17.53;11.47;;;;;;;20.75;75.38;95851.25;5102951;28;20222;-67
2021/07/13 07:30:57;;;;;;;14.73;8.20;;;;;;;20.69;75.66;95856.47;5102629;28;20226;-67
2021/07/13 07:33:24;;;;;;;8.67;5.60;;;;;;;20.86;75.42;95855.63;5102318;28;20265;-66
2021/07/13 07:35:49;;;;;;;4.47;3.63;;;;;;;20.78;75.92;95853.41;5102419;28;20220;-67
2021/07/13 07:38:15;;;;;;;5.17;3.60;;;;;;;20.56;76.77;95847.03;5103796;28;20443;-67
2021/07/13 07:40:41;;;;;;;3.37;3.07;;;;;;;20.69;76.09;95845.03;5105805;28;20185;-67
2021/07/13 07:43:07;;;;;;;6.30;4.00;;;;;;;20.81;75.90;95863.53;5095227;28;20194;-66
2021/07/13 07:45:33;;;;;;;3.77;3.00;;;;;;;20.90;74.46;95878.03;5103001;28;20178;-66
2021/07/13 07:47:59;;;;;;;4.30;3.20;;;;;;;20.92;74.56;95877.75;5103289;28;20495;-67
2021/07/13 07:50:25;;;;;;;7.13;3.80;;;;;;;20.95;74.20;95882.59;5103746;28;20509;-65
2021/07/13 07:52:51;;;;;;;4.90;4.07;;;;;;;21.05;74.08;95882.69;5101812;28;20213;-66
2021/07/13 07:55:19;;;;;;;4.73;4.00;;;;;;;20.85;74.93;95880.63;5104244;28;20424;-67
2021/07/13 07:57:47;;;;;;;5.63;3.73;;;;;;;20.70;75.82;95883.91;5068079;28;20514;-66
2021/07/13 08:00:14;;;;;;;5.30;3.40;;;;;;;20.75;75.19;95880.53;5100673;28;20856;-66
2021/07/13 08:02:40;;;;;;;4.13;3.73;;;;;;;20.68;75.67;95873.50;5096757;28;20480;-67
2021/07/13 08:05:07;;;;;;;5.13;3.90;;;;;;;20.61;76.58;95877.38;5079907;28;21139;-67
2021/07/13 08:07:33;;;;;;;4.53;3.73;;;;;;;20.71;75.86;95870.34;5081316;28;20904;-67
2021/07/13 08:09:59;;;;;;;6.47;4.13;;;;;;;20.81;75.28;95871.53;5091480;28;20430;-67
2021/07/13 08:12:24;;;;;;;8.83;4.97;;;;;;;20.77;75.92;95868.56;5096678;28;20676;-67
2021/07/13 08:14:50;;;;;;;5.60;3.97;;;;;;;20.93;75.63;95874.84;5084901;28;20186;-67
2021/07/13 08:17:16;;;;;;;5.77;4.00;;;;;;;20.85;75.54;95872.63;5098677;28;20193;-65
2021/07/13 08:19:42;;;;;;;4.40;3.93;;;;;;;20.65;76.57;95866.03;5101563;28;20424;-67
2021/07/13 08:22:09;;;;;;;10.63;4.80;;;;;;;20.53;77.08;95852.84;5102498;28;20206;-67
2021/07/13 08:24:35;;;;;;;4.67;4.07;;;;;;;20.79;76.10;95845.16;5102979;28;20277;-65
2021/07/13 08:27:02;;;;;;;7.60;4.17;;;;;;;20.72;76.60;95850.66;5102268;28;20416;-66
2021/07/13 08:29:27;;;;;;;4.53;4.10;;;;;;;20.61;77.32;95848.13;5102282;28;20909;-67
2021/07/13 08:31:57;;;;;;;5.67;4.90;;;;;;;20.75;76.93;95859.22;5101419;28;20464;-67
2021/07/13 08:34:27;;;;;;;15.17;10.57;;;;;;;20.88;76.51;95858.84;5100585;28;20182;-67
2021/07/13 08:36:53;;;;;;;7.50;5.63;;;;;;;20.76;76.69;95860.84;5101205;28;20438;-68
2021/07/13 08:39:19;;;;;;;5.13;4.50;;;;;;;20.79;76.20;95865.66;5099648;28;20439;-67
2021/07/13 08:41:45;;;;;;;6.67;5.63;;;;;;;20.82;75.96;95881.13;5101164;28;20412;-67
2021/07/13 08:44:15;;;;;;;4.40;4.10;;;;;;;20.66;76.45;95877.47;5091963;28;20432;-66
2021/07/13 08:46:42;;;;;;;6.40;3.97;;;;;;;20.72;76.02;95869.28;5099903;28;20428;-67
2021/07/13 08:49:10;;;;;;;3.70;3.40;;;;;;;20.41;77.12;95876.91;5101898;28;20451;-67
2021/07/13 08:51:36;;;;;;;4.03;3.07;;;;;;;20.32;77.93;95877.59;5100247;28;20551;-66
2021/07/13 08:54:02;;;;;;;6.87;4.23;;;;;;;20.48;77.76;95890.03;5101092;28;20428;-66
2021/07/13 08:56:28;;;;;;;4.43;3.90;;;;;;;20.35;78.82;95890.41;5101531;28;20419;-66
2021/07/13 08:58:54;;;;;;;6.20;4.07;;;;;;;20.45;78.30;95897.69;5102486;28;20438;-67
2021/07/13 09:01:20;;;;;;;2.63;2.43;;;;;;;20.35;76.84;95909.03;5101212;28;20469;-67
2021/07/13 09:04:12;;;;;;;5.03;2.13;;;;;;;19.97;77.64;95906.13;5100646;28;20447;-67
2021/07/13 09:06:56;;;;;;;4.40;2.10;;;;;;;19.87;78.48;95914.75;5099921;28;20182;-67
2021/07/13 09:09:25;;;;;;;3.40;1.23;;;;;;;19.51;78.34;95927.44;5099214;28;20776;-67
2021/07/13 09:12:15;;;;;;;3.63;2.07;;;;;;;19.40;79.04;95929.13;5099805;28;20459;-68
2021/07/13 09:14:56;;;;;;;3.77;1.17;;;;;;;19.07;79.47;95921.91;5096617;28;20511;-67
2021/07/13 09:17:32;;;;;;;1.87;1.20;;;;;;;18.94;80.55;95922.97;5098354;28;21098;-67
2021/07/13 09:20:03;;;;;;;3.30;0.90;;;;;;;18.71;80.88;95927.31;5097826;28;20431;-67
2021/07/13 09:22:28;;;;;;;2.70;0.80;;;;;;;18.61;80.95;95933.19;5104648;28;20545;-67
2021/07/13 09:24:57;;;;;;;1.60;1.00;;;;;;;18.50;81.44;95934.84;5099986;28;20428;-68
2021/07/13 09:27:23;;;;;;;1.10;0.90;;;;;;;18.71;80.61;95940.56;5107670;28;20213;-68
2021/07/13 09:29:51;;;;;;;0.93;0.70;;;;;;;18.60;80.77;95942.19;5100037;28;20890;-67
2021/07/13 09:32:35;;;;;;;1.20;0.70;;;;;;;18.73;80.55;95947.25;5099337;28;20475;-68
2021/07/13 09:35:19;;;;;;;1.03;0.50;;;;;;;18.44;80.70;95954.34;5100901;28;20427;-66
2021/07/13 09:37:48;;;;;;;1.20;0.90;;;;;;;18.34;82.12;95959.44;5098565;28;20491;-68
2021/07/13 09:40:18;;;;;;;2.90;1.20;;;;;;;18.40;81.63;95958.50;5082311;28;20522;-67
2021/07/13 09:42:47;;;;;;;2.43;0.90;;;;;;;18.50;81.94;95972.00;5096775;28;20444;-67
2021/07/13 09:45:28;;;;;;;0.80;0.60;;;;;;;18.32;82.34;95962.34;5097532;28;20438;-66
2021/07/13 09:47:56;;;;;;;3.53;0.93;;;;;;;18.29;81.77;95980.53;5099822;28;20420;-67
2021/07/13 09:50:30;;;;;;;1.77;0.87;;;;;;;18.64;79.56;95977.06;5101482;28;20436;-67
2021/07/13 09:53:00;;;;;;;2.17;0.70;;;;;;;18.69;78.70;95977.13;5100131;28;20466;-67
2021/07/13 09:55:27;;;;;;;1.20;0.60;;;;;;;18.26;79.87;95984.44;5100618;28;20439;-67
2021/07/13 09:57:52;;;;;;;2.90;0.80;;;;;;;18.32;78.13;95975.59;5101111;28;20792;-68
2021/07/13 10:00:18;;;;;;;1.77;0.70;;;;;;;18.32;78.86;95970.28;5099785;28;20526;-67
2021/07/13 10:02:44;;;;;;;1.20;0.60;;;;;;;18.28;78.82;95955.88;5094276;28;20221;-67
2021/07/13 10:05:10;;;;;;;3.13;0.90;;;;;;;18.21;79.12;95952.53;5098594;28;20197;-67
2021/07/13 10:07:36;;;;;;;1.50;0.70;;;;;;;17.81;79.28;95946.03;5097349;28;20430;-66
2021/07/13 10:10:04;;;;;;;1.87;0.70;;;;;;;17.56;81.21;95940.94;5099708;28;20182;-67
2021/07/13 10:12:29;;;;;;;2.70;1.20;;;;;;;17.76;79.83;95920.22;5096464;28;20681;-66
2021/07/13 10:14:59;;;;;;;8.13;5.10;;;;;;;17.80;80.49;95925.88;5095187;28;20450;-67
2021/07/13 10:17:31;;;;;;;12.00;2.97;;;;;;;18.07;79.06;95909.53;5081725;28;20170;-67
2021/07/13 10:20:07;;;;;;;11.70;3.07;;;;;;;17.93;79.75;95915.03;5100346;28;20427;-68
2021/07/13 10:22:35;;;;;;;1.10;0.60;;;;;;;17.66;79.09;95910.19;5090075;28;20447;-67
2021/07/13 10:25:01;;;;;;;3.03;1.00;;;;;;;17.78;79.99;95906.72;5099206;28;20433;-67
2021/07/13 10:27:35;;;;;;;2.53;0.60;;;;;;;17.69;79.69;95929.31;5102711;28;20484;-68
2021/07/13 10:30:07;;;;;;;1.50;0.77;;;;;;;17.76;79.22;95940.63;5098909;28;20420;-68
2021/07/13 10:32:41;;;;;;;4.90;1.50;;;;;;;18.03;78.16;95977.28;5098700;28;20470;-67
2021/07/13 10:35:25;;;;;;;3.47;3.17;;;;;;;17.91;78.46;96001.91;5099847;28;20424;-67
2021/07/13 10:38:01;;;;;;;1.57;0.93;;;;;;;17.64;77.96;96023.50;5098425;28;20787;-67
2021/07/13 10:40:27;;;;;;;1.60;1.00;;;;;;;18.46;74.97;96018.56;5098956;28;20469;-67
2021/07/13 10:42:57;;;;;;;1.90;0.80;;;;;;;18.42;74.56;96017.41;5091401;28;20440;-67
2021/07/13 10:45:29;;;;;;;0.90;0.53;;;;;;;18.00;76.30;96010.38;5097821;28;20185;-68
2021/07/13 10:48:05;;;;;;;1.13;0.87;;;;;;;17.90;77.13;96010.91;5098574;28;20423;-66
2021/07/13 10:50:30;;;;;;;1.50;0.70;;;;;;;18.35;74.98;96027.34;5061616;28;20420;-66
2021/07/13 10:53:04;;;;;;;0.90;0.70;;;;;;;18.39;73.94;96033.81;5093436;28;20466;-67
2021/07/13 10:55:30;;;;;;;2.53;0.83;;;;;;;18.72;73.04;96027.88;5073879;28;20178;-66
2021/07/13 10:58:17;;;;;;;1.70;0.70;;;;;;;18.39;74.44;96031.97;5099713;28;20424;-68
2021/07/13 11:00:53;;;;;;;3.17;1.13;;;;;;;18.08;74.69;96028.59;5101117;28;20182;-67
2021/07/13 11:03:31;;;;;;;5.33;1.57;;;;;;;18.17;75.44;95999.91;5099221;28;21064;-67
2021/07/13 11:06:01;;;;;;;0.80;0.50;;;;;;;17.69;75.97;95964.56;5098221;28;20506;-67
2021/07/13 11:08:41;;;;;;;3.00;1.33;;;;;;;17.88;76.03;95962.63;5091988;28;20832;-67
2021/07/13 11:13:48;;;;;;;3.90;2.30;;;;;;;19.14;72.79;96011.00;5090686;28;20548;-68
2021/07/13 11:16:16;;;;;;;6.33;2.30;;;;;;;19.46;71.40;96013.16;5099648;28;20511;-67
2021/07/13 11:18:42;;;;;;;2.30;1.17;;;;;;;19.19;71.32;96020.91;5098054;28;20527;-68
2021/07/13 11:21:20;;;;;;;4.20;1.60;;;;;;;19.26;72.01;96031.38;5097687;28;20419;-68
2021/07/13 11:23:47;;;;;;;2.73;0.80;;;;;;;18.80;72.75;96031.25;5079249;28;20458;-68
2021/07/13 11:26:14;;;;;;;2.90;0.80;;;;;;;19.17;71.00;96020.34;5098457;28;20447;-70
2021/07/13 11:28:52;;;;;;;1.77;1.23;;;;;;;18.96;72.21;96021.78;5098619;28;20443;-67
2021/07/13 11:31:25;;;;;;;1.43;1.30;;;;;;;18.92;72.10;96020.59;5095799;28;20881;-68
2021/07/13 11:33:56;;;;;;;1.67;1.00;;;;;;;19.11;71.61;96034.53;5098527;28;20435;-67
2021/07/13 11:36:32;;;;;;;0.80;0.60;;;;;;;18.35;73.30;96041.41;5098920;28;20420;-68
2021/07/13 11:38:58;;;;;;;0.90;0.70;;;;;;;19.03;70.36;96056.94;5099496;28;20427;-68